Belleville, New York
Current Conditions -  °F | °C
As of 12:56 AM on Sunday 26 Oct 2014 (Local Time) from KART Reporting Station
Few Clouds Few Clouds  
Wind Chill: 52°   Ceiling: Unl
Heat Index: 52°   Visibility: 10mi
Dew Point: 37°   Wind: 12mph
Humidity: 57%   Direction: 270°W
Pressure: 29.52"   Gusts: 24mph
Location:  43.78°N, 76.12°W
Report Text: KART 260456Z AUTO 27010G21KT 10SM FEW039 11/03 A2952 RMK AO2 SLP996 T01110028 401610039
Loading
Personal Weather Stations






























Interactive Weather Map
Tropical Storm Tracking
New forecast layout! Learn more

10-Day Weather Forecast

Advertisements
Track Severe Weather on mobile